Terminal Aerodrome Forecast
Issued by NWS Detroit/Pontiac, MI

Home | Current Version | Previous Version | Text Only | Print | Product List | Glossary On
Versions: 1 2 3 4 5 6 7 8 9 10 11 12 13 14 15 16 17 18 19 20 21 22 23 24 25 26 27 28 29
000
FTUS43 KDTX 202300
TAFDTW
TAF
KDTW 202337Z 2100/2206 30008KT P6SM SKC
     FM210800 27003KT 3SM BR SKC
     FM211000 VRB03KT 1SM BR SCT007
     FM211200 24005KT 3SM BR SCT015
     FM211400 27005KT P6SM BKN035
     FM211900 27007KT P6SM SCT045 PROB30 2121/2124 2SM TSRA OVC025CB
     FM220100 VRB03KT 6SM -SHRA OVC045=

USA.gov is the U.S. government's official web portal to all federal, state and local government web resources and services.